createdAt,value
2024-05-09T00:00:35.573Z,102172.53
2024-05-09T00:03:08.234Z,102171.56
2024-05-09T00:05:36.291Z,102165.16
2024-05-09T00:08:03.577Z,102163.41
2024-05-09T00:10:36.268Z,102154.50
2024-05-09T00:13:06.071Z,102161.69
2024-05-09T00:15:33.816Z,102158.84
2024-05-09T00:18:00.932Z,102165.16
2024-05-09T00:20:36.000Z,102158.38
2024-05-09T00:23:07.474Z,102161.41
2024-05-09T00:25:34.556Z,102166.13
2024-05-09T00:28:01.084Z,102160.53
2024-05-09T00:30:33.766Z,102162.34
2024-05-09T00:33:03.104Z,102163.03
2024-05-09T00:35:30.253Z,102155.88
2024-05-09T00:37:56.866Z,102160.66
2024-05-09T00:40:31.160Z,102164.44
2024-05-09T00:43:08.059Z,102161.56
2024-05-09T00:45:35.201Z,102161.78
2024-05-09T00:48:08.405Z,102157.88
2024-05-09T00:50:38.611Z,102147.03
2024-05-09T00:53:07.161Z,102160.50
2024-05-09T00:55:38.987Z,102155.53
2024-05-09T00:58:07.595Z,102157.50
2024-05-09T01:00:39.111Z,102157.13
2024-05-09T01:03:12.487Z,102162.94
2024-05-09T01:10:17.405Z,102162.25
2024-05-09T01:12:51.138Z,102164.00
2024-05-09T01:15:17.677Z,102169.31
2024-05-09T01:17:44.627Z,102166.81
2024-05-09T01:20:19.730Z,102167.78
2024-05-09T01:22:51.053Z,102170.09
2024-05-09T01:25:17.760Z,102169.13
2024-05-09T01:27:44.338Z,102171.06
2024-05-09T01:30:17.037Z,102167.00
2024-05-09T01:32:47.584Z,102174.75
2024-05-09T01:35:14.272Z,102166.13
2024-05-09T01:37:41.211Z,102168.53
2024-05-09T01:40:12.291Z,102168.34
2024-05-09T01:42:41.843Z,102170.06
2024-05-09T01:45:09.194Z,102162.16
2024-05-09T01:47:36.109Z,102160.78
2024-05-09T01:50:05.071Z,102161.84
2024-05-09T01:52:38.486Z,102157.28
2024-05-09T01:55:07.053Z,102160.78
2024-05-09T01:57:35.025Z,102161.63
2024-05-09T02:00:01.539Z,102166.19
2024-05-09T02:02:28.113Z,102166.97
2024-05-09T02:04:54.684Z,102166.97
2024-05-09T02:07:21.400Z,102164.44
2024-05-09T02:09:51.188Z,102167.72
2024-05-09T02:12:18.192Z,102166.56
2024-05-09T02:14:44.774Z,102166.56
2024-05-09T02:17:11.347Z,102164.81
2024-05-09T02:19:38.018Z,102162.41
2024-05-09T02:22:04.675Z,102165.56
2024-05-09T02:24:31.182Z,102163.63
2024-05-09T02:26:57.690Z,102166.94
2024-05-09T02:29:24.261Z,102159.28
2024-05-09T02:31:50.876Z,102154.94
2024-05-09T02:34:17.481Z,102147.94
2024-05-09T02:36:44.071Z,102154.78
2024-05-09T02:39:10.579Z,102156.34
2024-05-09T02:41:38.004Z,102157.22
2024-05-09T02:44:04.701Z,102151.72
2024-05-09T02:46:31.254Z,102150.66
2024-05-09T02:48:57.913Z,102153.34
2024-05-09T02:51:24.546Z,102154.41
2024-05-09T02:53:51.450Z,102147.53
2024-05-09T02:56:17.982Z,102150.75
2024-05-09T02:58:44.525Z,102152.69
2024-05-09T03:01:11.072Z,102144.34
2024-05-09T03:03:37.844Z,102148.22
2024-05-09T03:06:05.146Z,102152.00
2024-05-09T03:08:32.242Z,102151.91
2024-05-09T03:10:58.910Z,102149.00
2024-05-09T03:13:25.448Z,102148.94
2024-05-09T03:15:51.956Z,102156.16
2024-05-09T03:18:18.557Z,102157.06
2024-05-09T03:20:45.220Z,102154.41
2024-05-09T03:23:11.791Z,102149.00
2024-05-09T03:25:38.939Z,102151.66
2024-05-09T03:28:05.983Z,102156.56
2024-05-09T03:30:40.021Z,102158.44
2024-05-09T03:33:15.435Z,102158.06
2024-05-09T03:35:46.349Z,102151.84
2024-05-09T03:38:13.576Z,102152.72
2024-05-09T03:40:47.262Z,102155.19
2024-05-09T03:43:14.516Z,102155.19
2024-05-09T03:45:42.702Z,102159.72
2024-05-09T03:48:09.415Z,102156.25
2024-05-09T03:50:37.315Z,102155.56
2024-05-09T03:53:04.714Z,102161.06
2024-05-09T03:55:31.471Z,102158.25
2024-05-09T03:57:58.243Z,102158.84
2024-05-09T04:00:31.500Z,102163.25
2024-05-09T04:03:10.242Z,102163.25
2024-05-09T04:05:44.190Z,102163.94
2024-05-09T04:08:11.633Z,102161.66
2024-05-09T04:10:38.362Z,102166.72
2024-05-09T04:13:05.137Z,102157.78
2024-05-09T04:15:32.301Z,102164.78
2024-05-09T04:17:59.325Z,102161.69
2024-05-09T04:22:56.481Z,102170.34
2024-05-09T04:25:23.001Z,102164.06
2024-05-09T04:27:49.540Z,102168.16
2024-05-09T04:30:25.401Z,102169.38
2024-05-09T04:32:57.663Z,102168.16
2024-05-09T04:35:24.457Z,102167.34
2024-05-09T04:37:51.114Z,102170.56
2024-05-09T04:40:24.418Z,102175.78
2024-05-09T04:42:58.349Z,102164.97
2024-05-09T04:45:24.963Z,102169.81
2024-05-09T04:47:51.808Z,102163.81
2024-05-09T04:50:28.912Z,102161.91
2024-05-09T04:53:00.583Z,102168.03
2024-05-09T04:55:27.131Z,102172.47
2024-05-09T04:57:53.653Z,102171.25
2024-05-09T05:00:28.486Z,102178.81
2024-05-09T05:03:05.697Z,102178.41
2024-05-09T05:05:32.595Z,102179.00
2024-05-09T05:07:59.784Z,102177.44
2024-05-09T05:10:33.754Z,102173.97
2024-05-09T05:13:17.192Z,102177.44
2024-05-09T05:15:45.143Z,102179.16
2024-05-09T05:18:11.990Z,102176.97
2024-05-09T05:20:38.696Z,102181.28
2024-05-09T05:23:08.633Z,102182.44
2024-05-09T05:25:35.207Z,102184.59
2024-05-09T05:28:01.703Z,102189.59
2024-05-09T05:30:32.920Z,102186.53
2024-05-09T05:33:01.487Z,102191.50
2024-05-09T05:35:28.345Z,102189.81
2024-05-09T05:37:55.009Z,102184.97
2024-05-09T05:40:28.621Z,102194.19
2024-05-09T05:43:03.236Z,102191.75
2024-05-09T05:45:29.822Z,102187.91
2024-05-09T05:47:56.752Z,102189.94
2024-05-09T05:50:28.093Z,102195.25
2024-05-09T05:53:01.971Z,102191.00
2024-05-09T05:55:28.545Z,102198.56
2024-05-09T05:57:55.039Z,102188.88
2024-05-09T06:00:29.410Z,102186.09
2024-05-09T06:03:02.317Z,102180.38
2024-05-09T06:05:29.158Z,102186.56
2024-05-09T06:07:55.817Z,102189.84
2024-05-09T06:10:26.322Z,102191.22
2024-05-09T06:13:01.346Z,102189.38
2024-05-09T06:15:27.867Z,102182.97
2024-05-09T06:17:54.642Z,102183.84
2024-05-09T06:20:31.238Z,102184.81
2024-05-09T06:23:03.189Z,102182.84
2024-05-09T06:25:29.913Z,102174.44
2024-05-09T06:27:56.466Z,102177.69
2024-05-09T06:30:30.915Z,102173.16
2024-05-09T06:33:05.166Z,102182.19
2024-05-09T06:35:32.638Z,102178.13
2024-05-09T06:37:59.442Z,102181.94
2024-05-09T06:40:34.443Z,102171.97
2024-05-09T06:43:04.849Z,102175.63
2024-05-09T06:45:31.393Z,102175.84
2024-05-09T06:47:58.142Z,102171.41
2024-05-09T06:50:28.303Z,102170.47
2024-05-09T06:52:58.386Z,102171.66
2024-05-09T06:55:24.969Z,102155.34
2024-05-09T06:57:51.504Z,102156.47
2024-05-09T07:00:26.870Z,102154.78
2024-05-09T07:02:59.004Z,102166.41
2024-05-09T07:05:29.559Z,102154.31
2024-05-09T07:07:56.186Z,102154.41
2024-05-09T07:10:28.910Z,102151.34
2024-05-09T07:13:00.542Z,102151.00
2024-05-09T07:15:27.085Z,102153.00
2024-05-09T07:17:53.815Z,102151.63
2024-05-09T07:20:31.647Z,102149.91
2024-05-09T07:23:03.230Z,102148.78
2024-05-09T07:25:30.331Z,102149.50
2024-05-09T07:27:57.038Z,102150.72
2024-05-09T07:30:32.512Z,102146.00
2024-05-09T07:33:01.333Z,102148.19
2024-05-09T07:35:28.943Z,102139.41
2024-05-09T07:37:55.656Z,102148.88
2024-05-09T07:40:32.315Z,102142.03
2024-05-09T07:43:07.240Z,102140.19
2024-05-09T07:52:23.332Z,102134.84
2024-05-09T07:53:38.724Z,102137.53
2024-05-09T07:56:09.100Z,102136.47
2024-05-09T07:58:36.936Z,102136.28
2024-05-09T08:01:03.874Z,102133.66
2024-05-09T08:03:31.566Z,102135.59
2024-05-09T08:05:58.192Z,102140.78
2024-05-09T08:08:24.752Z,102138.00
2024-05-09T08:10:51.405Z,102132.97
2024-05-09T08:13:17.985Z,102134.84
2024-05-09T08:15:44.803Z,102134.88
2024-05-09T08:18:11.671Z,102130.00
2024-05-09T08:20:39.282Z,102129.34
2024-05-09T08:23:06.106Z,102130.63
2024-05-09T08:25:32.956Z,102127.59
2024-05-09T08:27:59.588Z,102122.28
2024-05-09T08:30:33.388Z,102121.13
2024-05-09T08:33:04.503Z,102112.25
2024-05-09T08:35:32.254Z,102116.38
2024-05-09T08:37:59.289Z,102116.53
2024-05-09T08:40:33.410Z,102122.56
2024-05-09T08:43:06.389Z,102119.28
2024-05-09T08:45:35.419Z,102106.72
2024-05-09T08:48:07.667Z,102109.84
2024-05-09T08:50:39.140Z,102114.09
2024-05-09T08:53:08.064Z,102114.47
2024-05-09T08:55:37.392Z,102114.06
2024-05-09T08:58:07.524Z,102107.91
2024-05-09T09:00:37.429Z,102105.00
2024-05-09T09:03:06.773Z,102095.41
2024-05-09T09:05:38.290Z,102111.06
2024-05-09T09:08:07.646Z,102109.59
2024-05-09T09:10:35.183Z,102104.25
2024-05-09T09:13:04.226Z,102101.75
2024-05-09T09:15:31.117Z,102105.91
2024-05-09T09:17:59.186Z,102106.81
2024-05-09T09:20:36.021Z,102102.13
2024-05-09T09:23:04.325Z,102097.59
2024-05-09T09:25:31.302Z,102092.94
2024-05-09T09:27:58.739Z,102090.22
2024-05-09T09:30:35.121Z,102085.47
2024-05-09T09:33:04.871Z,102084.16
2024-05-09T09:35:31.629Z,102086.59
2024-05-09T09:38:02.033Z,102088.50
2024-05-09T09:40:40.862Z,102086.81
2024-05-09T09:43:17.662Z,102083.88
2024-05-09T09:45:46.378Z,102088.66
2024-05-09T09:48:14.768Z,102087.38
2024-05-09T09:50:42.183Z,102092.56
2024-05-09T09:53:09.914Z,102087.13
2024-05-09T09:55:37.662Z,102090.34
2024-05-09T09:58:05.938Z,102086.69
2024-05-09T10:00:34.255Z,102084.88
2024-05-09T10:03:01.941Z,102080.56
2024-05-09T10:05:30.020Z,102079.75
2024-05-09T10:07:58.524Z,102077.81
2024-05-09T10:10:32.184Z,102080.59
2024-05-09T10:13:07.122Z,102075.63
2024-05-09T10:16:10.578Z,102088.09
2024-05-09T10:18:38.715Z,102080.41
2024-05-09T10:21:21.544Z,102075.22
2024-05-09T10:23:59.734Z,102081.31
2024-05-09T10:26:37.391Z,102083.56
2024-05-09T10:29:16.509Z,102072.22
2024-05-09T10:31:44.583Z,102069.84
2024-05-09T10:34:23.944Z,102071.94
2024-05-09T10:36:54.526Z,102065.69
2024-05-09T10:39:21.777Z,102054.34
2024-05-09T10:41:49.575Z,102066.06
2024-05-09T10:44:17.015Z,102057.97
2024-05-09T10:46:45.113Z,102051.75
2024-05-09T10:49:14.954Z,102056.66
2024-05-09T10:51:44.526Z,102049.25
2024-05-09T10:54:11.364Z,102049.78
2024-05-09T10:56:37.861Z,102044.31
2024-05-09T10:59:04.909Z,102042.59
2024-05-09T11:01:31.743Z,102042.44
2024-05-09T11:03:58.621Z,102046.78
2024-05-09T11:06:25.943Z,102041.63
2024-05-09T11:08:52.822Z,102041.81
2024-05-09T11:11:19.942Z,102039.47
2024-05-09T11:13:46.499Z,102034.00
2024-05-09T11:16:19.707Z,102033.34
2024-05-09T11:18:57.480Z,102024.78
2024-05-09T11:21:24.639Z,102034.69
2024-05-09T11:23:51.682Z,102031.84
2024-05-09T11:26:19.546Z,102023.59
2024-05-09T11:28:46.482Z,102023.50
2024-05-09T11:31:13.105Z,102028.66
2024-05-09T11:33:42.239Z,102024.75
2024-05-09T11:36:11.091Z,102022.13
2024-05-09T11:38:37.618Z,102015.84
2024-05-09T11:41:05.334Z,102010.38
2024-05-09T11:43:32.183Z,102013.41
2024-05-09T11:45:59.250Z,102014.22
2024-05-09T11:48:26.540Z,102010.28
2024-05-09T11:50:54.429Z,102000.66
2024-05-09T11:53:20.955Z,102005.81
2024-05-09T11:55:47.432Z,102004.69
2024-05-09T11:58:17.494Z,102008.19
2024-05-09T12:00:45.462Z,102009.56
2024-05-09T12:03:12.320Z,101998.53
2024-05-09T12:05:38.955Z,101998.53
2024-05-09T12:08:06.210Z,101992.81
2024-05-09T12:10:35.524Z,101991.97
2024-05-09T12:13:05.370Z,101994.53
2024-05-09T12:15:33.959Z,102001.25
2024-05-09T12:18:03.395Z,101987.94
2024-05-09T12:20:37.418Z,101995.38
2024-05-09T12:23:06.766Z,101994.00
2024-05-09T12:25:33.434Z,101988.88
2024-05-09T12:28:00.590Z,101993.94
2024-05-09T12:30:36.127Z,101986.97
2024-05-09T12:33:08.090Z,101982.72
2024-05-09T12:35:34.837Z,101974.56
2024-05-09T12:38:01.479Z,101971.66
2024-05-09T12:40:35.560Z,101972.94
2024-05-09T12:43:08.072Z,101967.94
2024-05-09T12:45:35.835Z,101963.09
2024-05-09T12:48:03.241Z,101965.50
2024-05-09T12:50:33.181Z,101964.53
2024-05-09T12:53:02.179Z,101959.66
2024-05-09T12:55:33.900Z,101959.50
2024-05-09T12:58:07.691Z,101950.25
2024-05-09T13:00:34.847Z,101946.84
2024-05-09T13:03:01.674Z,101947.44
2024-05-09T13:05:28.832Z,101931.72
2024-05-09T13:07:56.445Z,101929.53
2024-05-09T13:10:29.272Z,101931.38
2024-05-09T13:12:59.581Z,101927.56
2024-05-09T13:15:26.436Z,101926.16
2024-05-09T13:17:53.133Z,101923.66
2024-05-09T13:20:28.940Z,101915.69
2024-05-09T13:23:02.021Z,101916.38
2024-05-09T13:25:28.638Z,101910.75
2024-05-09T13:27:55.893Z,101906.00
2024-05-09T13:30:29.609Z,101903.63
2024-05-09T13:33:05.613Z,101901.59
2024-05-09T13:35:34.235Z,101895.78
2024-05-09T13:38:02.236Z,101900.22
2024-05-09T13:40:33.690Z,101894.69
2024-05-09T13:43:02.743Z,101896.09
2024-05-09T13:45:29.424Z,101898.44
2024-05-09T13:47:56.518Z,101898.13
2024-05-09T13:50:31.329Z,101890.56
2024-05-09T13:53:02.299Z,101884.47
2024-05-09T13:55:28.852Z,101886.69
2024-05-09T13:57:55.816Z,101880.97
2024-05-09T14:00:32.286Z,101887.13
2024-05-09T14:03:09.470Z,101888.31
2024-05-09T14:05:36.356Z,101871.91
2024-05-09T14:08:03.556Z,101882.81
2024-05-09T14:10:31.927Z,101882.47
2024-05-09T14:12:59.703Z,101875.06
2024-05-09T14:15:26.481Z,101863.78
2024-05-09T14:17:53.464Z,101869.13
2024-05-09T14:20:29.913Z,101862.63
2024-05-09T14:22:58.890Z,101861.66
2024-05-09T14:25:28.485Z,101865.78
2024-05-09T14:27:55.982Z,101859.63
2024-05-09T14:30:30.459Z,101850.88
2024-05-09T14:33:03.194Z,101851.38
2024-05-09T14:35:29.880Z,101853.97
2024-05-09T14:37:56.469Z,101843.16
2024-05-09T14:40:35.901Z,101848.34
2024-05-09T14:43:09.246Z,101843.63
2024-05-09T14:45:35.956Z,101844.16
2024-05-09T14:48:03.557Z,101842.63
2024-05-09T14:50:36.071Z,101833.16
2024-05-09T14:53:06.510Z,101831.94
2024-05-09T14:55:35.905Z,101830.03
2024-05-09T14:58:03.447Z,101829.16
2024-05-09T15:00:35.607Z,101824.84
2024-05-09T15:03:03.764Z,101814.84
2024-05-09T15:05:30.626Z,101817.97
2024-05-09T15:07:58.260Z,101812.66
2024-05-09T15:10:33.704Z,101808.88
2024-05-09T15:13:03.376Z,101816.25
2024-05-09T15:15:30.155Z,101811.06
2024-05-09T15:17:56.948Z,101813.13
2024-05-09T15:20:31.206Z,101810.72
2024-05-09T15:23:02.415Z,101807.53
2024-05-09T15:25:29.233Z,101807.78
2024-05-09T15:27:56.085Z,101817.16
2024-05-09T15:32:52.714Z,101803.75
2024-05-09T15:35:19.739Z,101800.38
2024-05-09T15:37:48.288Z,101795.06
2024-05-09T15:40:18.472Z,101780.34
2024-05-09T15:42:52.044Z,101792.56
2024-05-09T15:45:18.574Z,101791.91
2024-05-09T15:47:45.322Z,101791.59
2024-05-09T15:50:20.067Z,101790.72
2024-05-09T15:52:50.317Z,101793.78
2024-05-09T15:55:17.348Z,101786.75
2024-05-09T15:57:46.089Z,101783.81
2024-05-09T16:00:24.390Z,101785.00
2024-05-09T16:02:55.641Z,101782.59
2024-05-09T16:05:22.670Z,101782.22
2024-05-09T16:07:49.356Z,101779.63
2024-05-09T16:10:22.732Z,101779.84
2024-05-09T16:12:52.326Z,101784.81
2024-05-09T16:15:18.900Z,101779.63
2024-05-09T16:17:45.901Z,101782.72
2024-05-09T16:20:18.120Z,101779.25
2024-05-09T16:22:48.438Z,101777.69
2024-05-09T16:25:15.008Z,101783.38
2024-05-09T16:27:41.556Z,101781.66
2024-05-09T16:30:11.988Z,101779.59
2024-05-09T16:32:43.989Z,101775.97
2024-05-09T16:35:10.967Z,101775.13
2024-05-09T16:37:37.515Z,101774.44
2024-05-09T16:40:07.553Z,101781.66
2024-05-09T16:42:34.344Z,101777.88
2024-05-09T16:45:00.908Z,101777.00
2024-05-09T16:47:27.545Z,101774.72
2024-05-09T16:49:54.113Z,101775.75
2024-05-09T16:52:20.676Z,101779.19
2024-05-09T16:54:47.252Z,101774.56
2024-05-09T16:57:13.848Z,101774.03
2024-05-09T16:59:40.357Z,101773.69
2024-05-09T17:02:07.118Z,101772.59
2024-05-09T17:04:33.818Z,101775.00
2024-05-09T17:07:00.618Z,101772.75
2024-05-09T17:09:27.182Z,101767.25
2024-05-09T17:11:54.151Z,101774.75
2024-05-09T17:14:20.668Z,101777.31
2024-05-09T17:16:47.807Z,101769.25
2024-05-09T17:19:14.576Z,101773.38
2024-05-09T17:21:41.254Z,101767.00
2024-05-09T17:24:07.773Z,101771.09
2024-05-09T17:26:34.356Z,101769.72
2024-05-09T17:29:01.734Z,101771.19
2024-05-09T17:31:28.334Z,101761.97
2024-05-09T17:33:55.327Z,101768.63
2024-05-09T17:36:22.054Z,101769.28
2024-05-09T17:38:48.596Z,101767.69
2024-05-09T17:41:16.628Z,101767.53
2024-05-09T17:43:43.131Z,101771.41
2024-05-09T17:46:10.064Z,101767.41
2024-05-09T17:48:36.831Z,101770.63
2024-05-09T17:51:03.598Z,101772.13
2024-05-09T17:53:30.101Z,101778.41
2024-05-09T17:55:56.683Z,101774.41
2024-05-09T17:58:23.408Z,101772.84
2024-05-09T18:00:50.050Z,101767.69
2024-05-09T18:03:16.739Z,101766.81
2024-05-09T18:05:44.528Z,101772.91
2024-05-09T18:08:11.818Z,101776.28
2024-05-09T18:10:40.724Z,101772.09
2024-05-09T18:13:09.242Z,101782.50
2024-05-09T18:15:36.843Z,101777.88
2024-05-09T18:18:04.428Z,101779.22
2024-05-09T18:20:40.849Z,101782.56
2024-05-09T18:23:11.430Z,101784.06
2024-05-09T18:25:38.500Z,101778.75
2024-05-09T18:28:06.480Z,101782.09
2024-05-09T18:30:36.040Z,101785.59
2024-05-09T18:33:05.907Z,101781.75
2024-05-09T18:35:33.842Z,101787.69
2024-05-09T18:38:00.578Z,101785.56
2024-05-09T18:40:33.295Z,101791.66
2024-05-09T18:43:05.165Z,101795.31
2024-05-09T18:45:32.926Z,101795.03
2024-05-09T18:47:59.735Z,101796.50
2024-05-09T18:50:35.451Z,101793.34
2024-05-09T18:53:10.339Z,101796.84
2024-05-09T18:55:37.736Z,101805.75
2024-05-09T18:58:05.627Z,101810.09
2024-05-09T19:00:36.300Z,101806.25
2024-05-09T19:03:11.085Z,101806.81
2024-05-09T19:05:40.616Z,101806.69
2024-05-09T19:08:08.333Z,101809.72
2024-05-09T19:10:37.385Z,101811.31
2024-05-09T19:13:09.220Z,101818.38
2024-05-09T19:15:39.806Z,101817.22
2024-05-09T19:18:07.267Z,101817.69
2024-05-09T19:20:35.757Z,101818.25
2024-05-09T19:23:04.646Z,101827.75
2024-05-09T19:25:31.966Z,101825.44
2024-05-09T19:27:58.613Z,101817.66
2024-05-09T19:30:34.646Z,101821.56
2024-05-09T19:33:06.726Z,101826.59
2024-05-09T19:35:33.367Z,101821.41
2024-05-09T19:38:00.068Z,101814.47
2024-05-09T19:40:31.514Z,101818.53
2024-05-09T19:43:01.179Z,101824.22
2024-05-09T19:45:28.169Z,101817.47
2024-05-09T19:47:55.402Z,101821.34
2024-05-09T19:50:30.804Z,101829.81
2024-05-09T19:53:03.747Z,101828.53
2024-05-09T19:55:30.233Z,101836.28
2024-05-09T19:57:57.175Z,101834.84
2024-05-09T20:00:32.448Z,101838.56
2024-05-09T20:03:02.562Z,101832.25
2024-05-09T20:05:31.092Z,101836.81
2024-05-09T20:07:58.011Z,101834.22
2024-05-09T20:10:29.895Z,101840.00
2024-05-09T20:13:00.049Z,101840.00
2024-05-09T20:15:26.752Z,101840.28
2024-05-09T20:17:53.772Z,101836.78
2024-05-09T20:20:28.584Z,101837.69
2024-05-09T20:23:03.006Z,101835.06
2024-05-09T20:25:29.658Z,101837.69
2024-05-09T20:27:56.190Z,101838.81
2024-05-09T20:30:30.437Z,101836.06
2024-05-09T20:32:59.400Z,101833.16
2024-05-09T20:35:26.740Z,101832.44
2024-05-09T20:37:53.493Z,101836.47
2024-05-09T20:40:28.286Z,101839.34
2024-05-09T20:42:58.782Z,101834.84
2024-05-09T20:45:25.905Z,101832.06
2024-05-09T20:47:52.592Z,101831.78
2024-05-09T20:50:28.124Z,101836.63
2024-05-09T20:53:02.588Z,101832.59
2024-05-09T20:55:30.032Z,101837.44
2024-05-09T20:57:56.970Z,101840.19
2024-05-09T21:00:30.304Z,101839.44
2024-05-09T21:03:05.843Z,101838.13
2024-05-09T21:05:33.074Z,101832.22
2024-05-09T21:07:59.815Z,101834.09
2024-05-09T21:10:27.409Z,101839.69
2024-05-09T21:12:57.924Z,101833.50
2024-05-09T21:15:24.518Z,101836.81
2024-05-09T21:17:51.075Z,101837.66
2024-05-09T21:20:23.829Z,101849.59
2024-05-09T21:22:55.834Z,101844.41
2024-05-09T21:25:22.948Z,101835.34
2024-05-09T21:27:49.561Z,101844.78
2024-05-09T21:30:22.849Z,101844.78
2024-05-09T21:32:58.411Z,101843.19
2024-05-09T21:35:25.033Z,101846.06
2024-05-09T21:37:51.599Z,101846.44
2024-05-09T21:40:26.996Z,101845.56
2024-05-09T21:43:00.110Z,101834.94
2024-05-09T21:45:26.685Z,101843.25
2024-05-09T21:47:53.479Z,101835.78
2024-05-09T21:50:27.517Z,101833.94
2024-05-09T21:52:58.944Z,101836.53
2024-05-09T21:55:26.131Z,101833.78
2024-05-09T21:57:52.719Z,101826.75
2024-05-09T22:00:28.802Z,101835.94
2024-05-09T22:03:02.298Z,101830.72
2024-05-09T22:05:29.181Z,101833.44
2024-05-09T22:07:55.989Z,101838.19
2024-05-09T22:10:26.857Z,101837.47
2024-05-09T22:13:00.155Z,101829.41
2024-05-09T22:15:27.085Z,101827.34
2024-05-09T22:17:57.384Z,101831.06
2024-05-09T22:20:33.514Z,101832.78
2024-05-09T22:23:04.218Z,101831.31
2024-05-09T22:25:31.945Z,101831.59
2024-05-09T22:27:59.189Z,101830.13
2024-05-09T22:30:34.234Z,101833.84
2024-05-09T22:33:05.204Z,101837.56
2024-05-09T22:35:31.941Z,101840.56
2024-05-09T22:37:58.493Z,101840.56
2024-05-09T22:40:37.751Z,101841.56
2024-05-09T22:43:12.330Z,101841.81
2024-05-09T22:45:39.152Z,101840.09
2024-05-09T22:48:06.251Z,101841.81
2024-05-09T22:50:33.842Z,101841.06
2024-05-09T22:53:00.899Z,101839.75
2024-05-09T22:55:27.537Z,101831.84
2024-05-09T22:57:54.083Z,101839.13
2024-05-09T23:00:29.219Z,101837.38
2024-05-09T23:03:02.934Z,101829.75
2024-05-09T23:05:30.681Z,101836.22
2024-05-09T23:07:57.264Z,101834.56
2024-05-09T23:10:31.760Z,101840.16
2024-05-09T23:13:03.107Z,101837.31
2024-05-09T23:15:29.927Z,101825.81
2024-05-09T23:17:57.335Z,101830.38
2024-05-09T23:20:33.438Z,101837.22
2024-05-09T23:23:05.192Z,101827.56
2024-05-09T23:25:31.763Z,101831.53
2024-05-09T23:27:58.575Z,101821.91
2024-05-09T23:30:34.231Z,101824.13
2024-05-09T23:33:05.780Z,101821.41
2024-05-09T23:35:32.496Z,101821.53
2024-05-09T23:37:59.623Z,101822.41
2024-05-09T23:40:36.992Z,101825.25
2024-05-09T23:43:06.974Z,101820.44
2024-05-09T23:45:33.820Z,101816.94
2024-05-09T23:48:01.118Z,101815.34
2024-05-09T23:50:34.378Z,101821.06
2024-05-09T23:53:04.240Z,101813.97
2024-05-09T23:55:31.819Z,101806.81
2024-05-09T23:57:58.755Z,101814.25
